KGVE/GVE METAR and TAF weather

Enter ICAO airport designator
Station Type Date Time Source
KGVE METAR 2021/10/22 19:15 UTC NOAA

KGVE 221915Z AUTO 00000KT 10SM SCT047 BKN070 OVC085 20/10 A2993 RMK AO1 T01960103


Station Type Date Time Source
KGVE Decoded METAR 2021/10/22 19:15 UTC NOAA

Station name not available
Oct 22, 2021 - 03:15 PM EDT / 2021.10.22 1915 UTC
Wind: Calm:0
Visibility: 10 mile(s):0
Sky conditions: overcast
Temperature: 67.3 F (19.6 C)
Dew Point: 50.5 F (10.3 C)
Relative Humidity: 54%
Pressure (altimeter): 29.93 in. Hg (1013 hPa)
ob: KGVE 221915Z AUTO 00000KT 10SM SCT047 BKN070 OVC085 20/10 A2993 RMK AO1 T01960103
cycle: 19

Station Type Date Time Source
KGVE TAF UTC NOAA

Error!

Example: see airport list